sensor_id;sensor_type;location;lat;lon;timestamp;pressure;altitude;pressure_sealevel;temperature
19568;BMP280;9930;49.240;8.548;2022-08-06T00:01:55;101104.06;;;26.32
19568;BMP280;9930;49.240;8.548;2022-08-06T00:04:21;101092.81;;;26.25
19568;BMP280;9930;49.240;8.548;2022-08-06T00:06:48;101102.38;;;26.26
19568;BMP280;9930;49.240;8.548;2022-08-06T00:09:14;101092.88;;;26.21
19568;BMP280;9930;49.240;8.548;2022-08-06T00:11:40;101106.81;;;26.23
19568;BMP280;9930;49.240;8.548;2022-08-06T00:14:07;101106.91;;;26.15
19568;BMP280;9930;49.240;8.548;2022-08-06T00:16:36;101103.50;;;26.10
19568;BMP280;9930;49.240;8.548;2022-08-06T00:19:03;101113.16;;;26.06
19568;BMP280;9930;49.240;8.548;2022-08-06T00:21:31;101110.59;;;26.02
19568;BMP280;9930;49.240;8.548;2022-08-06T00:23:57;101105.53;;;25.94
19568;BMP280;9930;49.240;8.548;2022-08-06T00:26:23;101112.44;;;25.98
19568;BMP280;9930;49.240;8.548;2022-08-06T00:28:50;101119.44;;;25.96
19568;BMP280;9930;49.240;8.548;2022-08-06T00:31:17;101111.69;;;25.90
19568;BMP280;9930;49.240;8.548;2022-08-06T00:33:47;101117.72;;;25.95
19568;BMP280;9930;49.240;8.548;2022-08-06T00:36:17;101107.34;;;25.89
19568;BMP280;9930;49.240;8.548;2022-08-06T00:38:47;101115.13;;;25.92
19568;BMP280;9930;49.240;8.548;2022-08-06T00:41:17;101110.88;;;25.85
19568;BMP280;9930;49.240;8.548;2022-08-06T00:43:47;101124.81;;;25.86
19568;BMP280;9930;49.240;8.548;2022-08-06T00:46:17;101105.78;;;25.76
19568;BMP280;9930;49.240;8.548;2022-08-06T00:48:49;101128.38;;;25.81
19568;BMP280;9930;49.240;8.548;2022-08-06T00:51:17;101115.44;;;25.71
19568;BMP280;9930;49.240;8.548;2022-08-06T00:53:46;101128.47;;;25.74
19568;BMP280;9930;49.240;8.548;2022-08-06T00:56:16;101136.38;;;25.69
19568;BMP280;9930;49.240;8.548;2022-08-06T00:58:42;101127.78;;;25.58
19568;BMP280;9930;49.240;8.548;2022-08-06T01:01:09;101135.59;;;25.58
19568;BMP280;9930;49.240;8.548;2022-08-06T01:03:37;101140.03;;;25.53
19568;BMP280;9930;49.240;8.548;2022-08-06T01:06:03;101134.91;;;25.45
19568;BMP280;9930;49.240;8.548;2022-08-06T01:08:31;101128.00;;;25.38
19568;BMP280;9930;49.240;8.548;2022-08-06T01:10:57;101135.00;;;25.36
19568;BMP280;9930;49.240;8.548;2022-08-06T01:13:25;101134.16;;;25.34
19568;BMP280;9930;49.240;8.548;2022-08-06T01:16:47;101146.41;;;25.29
19568;BMP280;9930;49.240;8.548;2022-08-06T01:28:12;101126.63;;;25.07
19568;BMP280;9930;49.240;8.548;2022-08-06T01:30:50;101135.38;;;25.04
19568;BMP280;9930;49.240;8.548;2022-08-06T01:33:32;101125.88;;;24.97
19568;BMP280;9930;49.240;8.548;2022-08-06T01:36:06;101124.97;;;24.95
19568;BMP280;9930;49.240;8.548;2022-08-06T01:38:44;101129.31;;;24.96
19568;BMP280;9930;49.240;8.548;2022-08-06T01:41:20;101131.06;;;24.96
19568;BMP280;9930;49.240;8.548;2022-08-06T01:44:17;101125.91;;;24.91
19568;BMP280;9930;49.240;8.548;2022-08-06T01:46:51;101131.16;;;24.88
19568;BMP280;9930;49.240;8.548;2022-08-06T01:49:25;101136.31;;;24.93
19568;BMP280;9930;49.240;8.548;2022-08-06T01:51:54;101125.97;;;24.85
19568;BMP280;9930;49.240;8.548;2022-08-06T01:54:23;101128.59;;;24.82
19568;BMP280;9930;49.240;8.548;2022-08-06T01:56:53;101131.22;;;24.82
19568;BMP280;9930;49.240;8.548;2022-08-06T01:59:26;101139.97;;;24.73
19568;BMP280;9930;49.240;8.548;2022-08-06T02:01:56;101135.72;;;24.63
19568;BMP280;9930;49.240;8.548;2022-08-06T02:04:31;101142.66;;;24.67
19568;BMP280;9930;49.240;8.548;2022-08-06T02:07:06;101138.38;;;24.57
19568;BMP280;9930;49.240;8.548;2022-08-06T02:09:35;101143.66;;;24.52
19568;BMP280;9930;49.240;8.548;2022-08-06T02:12:15;101146.25;;;24.52
19568;BMP280;9930;49.240;8.548;2022-08-06T02:17:33;101152.41;;;24.44
19568;BMP280;9930;49.240;8.548;2022-08-06T02:20:02;101143.78;;;24.36
19568;BMP280;9930;49.240;8.548;2022-08-06T02:22:34;101144.69;;;24.30
19568;BMP280;9930;49.240;8.548;2022-08-06T02:25:05;101161.19;;;24.32
19568;BMP280;9930;49.240;8.548;2022-08-06T02:27:37;101142.97;;;24.23
19568;BMP280;9930;49.240;8.548;2022-08-06T02:30:04;101152.53;;;24.21
19568;BMP280;9930;49.240;8.548;2022-08-06T02:32:35;101147.38;;;24.13
19568;BMP280;9930;49.240;8.548;2022-08-06T02:35:01;101152.59;;;24.12
19568;BMP280;9930;49.240;8.548;2022-08-06T02:37:35;101146.56;;;24.04
19568;BMP280;9930;49.240;8.548;2022-08-06T02:40:16;101163.06;;;24.06
19568;BMP280;9930;49.240;8.548;2022-08-06T02:43:01;101160.47;;;24.01
19568;BMP280;9930;49.240;8.548;2022-08-06T02:48:30;101164.00;;;23.93
19568;BMP280;9930;49.240;8.548;2022-08-06T02:51:11;101164.00;;;23.89
19568;BMP280;9930;49.240;8.548;2022-08-06T02:54:24;101164.91;;;23.85
19568;BMP280;9930;49.240;8.548;2022-08-06T02:57:00;101144.13;;;23.73
19568;BMP280;9930;49.240;8.548;2022-08-06T02:59:31;101152.78;;;23.75
19568;BMP280;9930;49.240;8.548;2022-08-06T03:02:01;101166.66;;;23.82
19568;BMP280;9930;49.240;8.548;2022-08-06T03:04:31;101168.41;;;23.78
19568;BMP280;9930;49.240;8.548;2022-08-06T03:07:07;101166.69;;;23.76
19568;BMP280;9930;49.240;8.548;2022-08-06T03:09:37;101164.13;;;23.68
19568;BMP280;9930;49.240;8.548;2022-08-06T03:12:05;101154.59;;;23.61
19568;BMP280;9930;49.240;8.548;2022-08-06T03:14:33;101165.88;;;23.63
19568;BMP280;9930;49.240;8.548;2022-08-06T03:17:01;101184.97;;;23.64
19568;BMP280;9930;49.240;8.548;2022-08-06T03:19:31;101179.78;;;23.59
19568;BMP280;9930;49.240;8.548;2022-08-06T03:22:05;101181.53;;;23.57
19568;BMP280;9930;49.240;8.548;2022-08-06T03:24:35;101175.44;;;23.55
19568;BMP280;9930;49.240;8.548;2022-08-06T03:27:03;101178.06;;;23.47
19568;BMP280;9930;49.240;8.548;2022-08-06T03:29:30;101185.00;;;23.50
19568;BMP280;9930;49.240;8.548;2022-08-06T03:31:58;101191.06;;;23.47
19568;BMP280;9930;49.240;8.548;2022-08-06T03:34:28;101185.88;;;23.43
19568;BMP280;9930;49.240;8.548;2022-08-06T03:36:57;101183.28;;;23.38
19568;BMP280;9930;49.240;8.548;2022-08-06T03:39:25;101182.44;;;23.29
19568;BMP280;9930;49.240;8.548;2022-08-06T03:41:52;101183.31;;;23.26
19568;BMP280;9930;49.240;8.548;2022-08-06T03:44:19;101186.78;;;23.25
19568;BMP280;9930;49.240;8.548;2022-08-06T03:46:55;101195.47;;;23.21
19568;BMP280;9930;49.240;8.548;2022-08-06T03:49:34;101199.81;;;23.17
19568;BMP280;9930;49.240;8.548;2022-08-06T03:52:02;101203.28;;;23.16
19568;BMP280;9930;49.240;8.548;2022-08-06T03:54:40;101206.75;;;23.17
19568;BMP280;9930;49.240;8.548;2022-08-06T03:57:18;101205.91;;;23.15
19568;BMP280;9930;49.240;8.548;2022-08-06T03:59:52;101210.22;;;23.13
19568;BMP280;9930;49.240;8.548;2022-08-06T04:02:19;101215.44;;;23.10
19568;BMP280;9930;49.240;8.548;2022-08-06T04:04:47;101208.50;;;23.07
19568;BMP280;9930;49.240;8.548;2022-08-06T04:07:18;101216.31;;;23.06
19568;BMP280;9930;49.240;8.548;2022-08-06T04:09:50;101214.59;;;23.03
19568;BMP280;9930;49.240;8.548;2022-08-06T04:12:18;101214.59;;;22.97
19568;BMP280;9930;49.240;8.548;2022-08-06T04:14:50;101208.50;;;22.93
19568;BMP280;9930;49.240;8.548;2022-08-06T04:17:24;101228.47;;;23.01
19568;BMP280;9930;49.240;8.548;2022-08-06T04:19:52;101225.84;;;22.98
19568;BMP280;9930;49.240;8.548;2022-08-06T04:22:18;101218.91;;;22.89
19568;BMP280;9930;49.240;8.548;2022-08-06T04:24:45;101226.72;;;22.87
19568;BMP280;9930;49.240;8.548;2022-08-06T04:27:13;101224.13;;;22.84
19568;BMP280;9930;49.240;8.548;2022-08-06T04:29:47;101215.41;;;22.76
19568;BMP280;9930;49.240;8.548;2022-08-06T04:32:20;101234.50;;;22.78
19568;BMP280;9930;49.240;8.548;2022-08-06T04:34:49;101233.63;;;22.73
19568;BMP280;9930;49.240;8.548;2022-08-06T04:37:18;101237.97;;;22.74
19568;BMP280;9930;49.240;8.548;2022-08-06T04:39:47;101207.59;;;22.61
19568;BMP280;9930;49.240;8.548;2022-08-06T04:42:17;101219.75;;;22.65
19568;BMP280;9930;49.240;8.548;2022-08-06T04:44:48;101236.22;;;22.72
19568;BMP280;9930;49.240;8.548;2022-08-06T04:47:19;101238.81;;;22.72
19568;BMP280;9930;49.240;8.548;2022-08-06T04:49:47;101233.63;;;22.72
19568;BMP280;9930;49.240;8.548;2022-08-06T04:52:27;101232.75;;;22.68
19568;BMP280;9930;49.240;8.548;2022-08-06T04:54:53;101227.56;;;22.65
19568;BMP280;9930;49.240;8.548;2022-08-06T04:57:19;101228.41;;;22.66
19568;BMP280;9930;49.240;8.548;2022-08-06T04:59:49;101240.56;;;22.73
19568;BMP280;9930;49.240;8.548;2022-08-06T05:02:21;101241.44;;;22.72
19568;BMP280;9930;49.240;8.548;2022-08-06T05:04:49;101226.69;;;22.63
19568;BMP280;9930;49.240;8.548;2022-08-06T05:07:25;101234.47;;;22.63
19568;BMP280;9930;49.240;8.548;2022-08-06T05:09:57;101245.75;;;22.65
19568;BMP280;9930;49.240;8.548;2022-08-06T05:12:36;101254.44;;;22.69
19568;BMP280;9930;49.240;8.548;2022-08-06T05:15:10;101259.63;;;22.72
19568;BMP280;9930;49.240;8.548;2022-08-06T05:17:51;101259.63;;;22.67
19568;BMP280;9930;49.240;8.548;2022-08-06T05:20:21;101263.09;;;22.66
19568;BMP280;9930;49.240;8.548;2022-08-06T05:22:55;101269.16;;;22.74
19568;BMP280;9930;49.240;8.548;2022-08-06T05:25:24;101264.84;;;22.73
19568;BMP280;9930;49.240;8.548;2022-08-06T05:27:50;101255.31;;;22.74
19568;BMP280;9930;49.240;8.548;2022-08-06T05:30:17;101281.34;;;22.84
19568;BMP280;9930;49.240;8.548;2022-08-06T05:32:48;101285.69;;;22.85
19568;BMP280;9930;49.240;8.548;2022-08-06T05:35:15;101268.34;;;22.81
19568;BMP280;9930;49.240;8.548;2022-08-06T05:37:44;101276.09;;;22.75
19568;BMP280;9930;49.240;8.548;2022-08-06T05:40:16;101276.09;;;22.77
19568;BMP280;9930;49.240;8.548;2022-08-06T05:42:41;101288.28;;;22.84
19568;BMP280;9930;49.240;8.548;2022-08-06T05:45:11;101283.94;;;22.80
19568;BMP280;9930;49.240;8.548;2022-08-06T05:47:42;101282.22;;;22.85
19568;BMP280;9930;49.240;8.548;2022-08-06T05:50:15;101290.03;;;22.97
19568;BMP280;9930;49.240;8.548;2022-08-06T05:52:50;101301.31;;;23.25
19568;BMP280;9930;49.240;8.548;2022-08-06T05:55:22;101285.69;;;23.55
19568;BMP280;9930;49.240;8.548;2022-08-06T05:57:56;101290.78;;;24.01
19568;BMP280;9930;49.240;8.548;2022-08-06T06:00:26;101307.09;;;24.52
19568;BMP280;9930;49.240;8.548;2022-08-06T06:02:59;101301.59;;;24.96
19568;BMP280;9930;49.240;8.548;2022-08-06T06:05:29;101307.47;;;25.27
19568;BMP280;9930;49.240;8.548;2022-08-06T06:07:56;101310.72;;;25.52
19568;BMP280;9930;49.240;8.548;2022-08-06T06:10:23;101302.72;;;25.72
19568;BMP280;9930;49.240;8.548;2022-08-06T06:12:56;101318.09;;;25.98
19568;BMP280;9930;49.240;8.548;2022-08-06T06:15:24;101306.50;;;26.17
19568;BMP280;9930;49.240;8.548;2022-08-06T06:18:01;101309.72;;;26.42
19568;BMP280;9930;49.240;8.548;2022-08-06T06:23:53;101320.84;;;26.56
19568;BMP280;9930;49.240;8.548;2022-08-06T06:26:50;101325.31;;;26.50
19568;BMP280;9930;49.240;8.548;2022-08-06T06:30:01;101320.28;;;26.34
19568;BMP280;9930;49.240;8.548;2022-08-06T06:32:56;101312.56;;;26.21
19568;BMP280;9930;49.240;8.548;2022-08-06T06:35:52;101329.06;;;26.27
19568;BMP280;9930;49.240;8.548;2022-08-06T06:41:49;101329.94;;;26.25
19568;BMP280;9930;49.240;8.548;2022-08-06T06:47:27;101338.50;;;26.42
19568;BMP280;9930;49.240;8.548;2022-08-06T06:50:02;101334.91;;;26.49
19568;BMP280;9930;49.240;8.548;2022-08-06T06:52:40;101328.72;;;26.55
19568;BMP280;9930;49.240;8.548;2022-08-06T06:55:32;101326.09;;;26.55
19568;BMP280;9930;49.240;8.548;2022-08-06T06:58:06;101331.34;;;26.55
19568;BMP280;9930;49.240;8.548;2022-08-06T07:00:34;101332.22;;;26.54
19568;BMP280;9930;49.240;8.548;2022-08-06T07:03:04;101326.16;;;26.50
19568;BMP280;9930;49.240;8.548;2022-08-06T07:05:33;101316.56;;;26.51
19568;BMP280;9930;49.240;8.548;2022-08-06T07:08:05;101329.50;;;26.61
19568;BMP280;9930;49.240;8.548;2022-08-06T07:10:33;101334.66;;;26.66
19568;BMP280;9930;49.240;8.548;2022-08-06T07:13:01;101326.94;;;26.58
19568;BMP280;9930;49.240;8.548;2022-08-06T07:15:31;101326.91;;;26.60
19568;BMP280;9930;49.240;8.548;2022-08-06T07:17:59;101325.84;;;26.73
19568;BMP280;9930;49.240;8.548;2022-08-06T07:20:30;101343.81;;;26.99
19568;BMP280;9930;49.240;8.548;2022-08-06T07:23:07;101340.91;;;27.17
19568;BMP280;9930;49.240;8.548;2022-08-06T07:25:44;101342.34;;;27.35
19568;BMP280;9930;49.240;8.548;2022-08-06T07:28:18;101335.22;;;27.43
19568;BMP280;9930;49.240;8.548;2022-08-06T07:30:49;101340.19;;;27.60
19568;BMP280;9930;49.240;8.548;2022-08-06T07:33:19;101342.69;;;27.67
19568;BMP280;9930;49.240;8.548;2022-08-06T07:35:50;101338.19;;;27.74
19568;BMP280;9930;49.240;8.548;2022-08-06T07:38:22;101334.69;;;27.75
19568;BMP280;9930;49.240;8.548;2022-08-06T07:40:58;101338.88;;;27.84
19568;BMP280;9930;49.240;8.548;2022-08-06T07:43:40;101324.91;;;27.83
19568;BMP280;9930;49.240;8.548;2022-08-06T07:46:08;101335.13;;;27.97
19568;BMP280;9930;49.240;8.548;2022-08-06T07:48:43;101323.81;;;27.95
19568;BMP280;9930;49.240;8.548;2022-08-06T07:51:17;101329.03;;;27.96
19568;BMP280;9930;49.240;8.548;2022-08-06T07:53:51;101323.00;;;27.91
19568;BMP280;9930;49.240;8.548;2022-08-06T07:56:19;101332.53;;;27.95
19568;BMP280;9930;49.240;8.548;2022-08-06T07:58:48;101328.97;;;27.99
19568;BMP280;9930;49.240;8.548;2022-08-06T08:01:18;101333.22;;;28.05
19568;BMP280;9930;49.240;8.548;2022-08-06T08:03:47;101323.59;;;28.05
19568;BMP280;9930;49.240;8.548;2022-08-06T08:06:32;101329.72;;;28.04
19568;BMP280;9930;49.240;8.548;2022-08-06T08:09:07;101335.75;;;28.10
19568;BMP280;9930;49.240;8.548;2022-08-06T08:11:40;101321.81;;;28.08
19568;BMP280;9930;49.240;8.548;2022-08-06T08:14:09;101330.31;;;28.19
19568;BMP280;9930;49.240;8.548;2022-08-06T08:16:37;101302.28;;;28.21
19568;BMP280;9930;49.240;8.548;2022-08-06T08:19:19;101316.75;;;28.42
19568;BMP280;9930;49.240;8.548;2022-08-06T08:21:51;101319.28;;;28.46
19568;BMP280;9930;49.240;8.548;2022-08-06T08:24:20;101321.81;;;28.49
19568;BMP280;9930;49.240;8.548;2022-08-06T08:26:46;101315.88;;;28.41
19568;BMP280;9930;49.240;8.548;2022-08-06T08:29:14;101320.19;;;28.44
19568;BMP280;9930;49.240;8.548;2022-08-06T08:31:42;101313.28;;;28.40
19568;BMP280;9930;49.240;8.548;2022-08-06T08:34:10;101297.94;;;28.20
19568;BMP280;9930;49.240;8.548;2022-08-06T08:36:38;101324.06;;;28.27
19568;BMP280;9930;49.240;8.548;2022-08-06T08:39:05;101323.25;;;28.24
19568;BMP280;9930;49.240;8.548;2022-08-06T08:41:40;101314.69;;;28.14
19568;BMP280;9930;49.240;8.548;2022-08-06T08:44:07;101327.00;;;28.11
19568;BMP280;9930;49.240;8.548;2022-08-06T08:46:40;101319.34;;;28.00
19568;BMP280;9930;49.240;8.548;2022-08-06T08:49:23;101322.91;;;27.96
19568;BMP280;9930;49.240;8.548;2022-08-06T08:51:51;101313.47;;;27.87
19568;BMP280;9930;49.240;8.548;2022-08-06T08:54:22;101317.72;;;27.93
19568;BMP280;9930;49.240;8.548;2022-08-06T08:56:52;101310.00;;;27.85
19568;BMP280;9930;49.240;8.548;2022-08-06T08:59:23;101313.59;;;27.81
19568;BMP280;9930;49.240;8.548;2022-08-06T09:01:50;101316.25;;;27.80
19568;BMP280;9930;49.240;8.548;2022-08-06T09:04:16;101308.28;;;27.84
19568;BMP280;9930;49.240;8.548;2022-08-06T09:06:43;101312.59;;;27.87
19568;BMP280;9930;49.240;8.548;2022-08-06T09:09:09;101304.81;;;27.84
19568;BMP280;9930;49.240;8.548;2022-08-06T09:11:36;101303.03;;;27.84
19568;BMP280;9930;49.240;8.548;2022-08-06T09:14:04;101323.19;;;27.82
19568;BMP280;9930;49.240;8.548;2022-08-06T09:16:32;101318.09;;;27.74
19568;BMP280;9930;49.240;8.548;2022-08-06T09:19:00;101317.22;;;27.74
19568;BMP280;9930;49.240;8.548;2022-08-06T09:21:28;101304.94;;;27.76
19568;BMP280;9930;49.240;8.548;2022-08-06T09:23:55;101311.81;;;27.83
19568;BMP280;9930;49.240;8.548;2022-08-06T09:26:23;101306.56;;;27.83
19568;BMP280;9930;49.240;8.548;2022-08-06T09:28:49;101315.19;;;27.88
19568;BMP280;9930;49.240;8.548;2022-08-06T09:31:18;101321.28;;;27.90
19568;BMP280;9930;49.240;8.548;2022-08-06T09:34:04;101300.28;;;27.90
19568;BMP280;9930;49.240;8.548;2022-08-06T09:36:46;101310.69;;;27.95
19568;BMP280;9930;49.240;8.548;2022-08-06T09:39:15;101300.22;;;27.95
19568;BMP280;9930;49.240;8.548;2022-08-06T09:41:49;101312.25;;;28.05
19568;BMP280;9930;49.240;8.548;2022-08-06T09:44:21;101306.13;;;28.04
19568;BMP280;9930;49.240;8.548;2022-08-06T09:46:50;101319.25;;;28.04
19568;BMP280;9930;49.240;8.548;2022-08-06T09:49:18;101304.47;;;28.00
19568;BMP280;9930;49.240;8.548;2022-08-06T09:51:46;101320.25;;;27.97
19568;BMP280;9930;49.240;8.548;2022-08-06T09:54:14;101321.28;;;27.90
19568;BMP280;9930;49.240;8.548;2022-08-06T09:56:55;101298.69;;;27.83
19568;BMP280;9930;49.240;8.548;2022-08-06T09:59:24;101302.84;;;27.93
19568;BMP280;9930;49.240;8.548;2022-08-06T10:01:52;101296.63;;;27.99
19568;BMP280;9930;49.240;8.548;2022-08-06T10:04:27;101295.53;;;28.09
19568;BMP280;9930;49.240;8.548;2022-08-06T10:07:00;101303.22;;;28.18
19568;BMP280;9930;49.240;8.548;2022-08-06T10:09:27;101290.97;;;28.19
19568;BMP280;9930;49.240;8.548;2022-08-06T10:11:54;101297.78;;;28.29
19568;BMP280;9930;49.240;8.548;2022-08-06T10:14:29;101299.47;;;28.31
19568;BMP280;9930;49.240;8.548;2022-08-06T10:17:08;101303.69;;;28.38
19568;BMP280;9930;49.240;8.548;2022-08-06T10:19:39;101299.19;;;28.44
19568;BMP280;9930;49.240;8.548;2022-08-06T10:22:08;101310.50;;;28.47
19568;BMP280;9930;49.240;8.548;2022-08-06T10:24:41;101297.34;;;28.49
19568;BMP280;9930;49.240;8.548;2022-08-06T10:27:23;101298.00;;;28.58
19568;BMP280;9930;49.240;8.548;2022-08-06T10:29:58;101303.94;;;28.66
19568;BMP280;9930;49.240;8.548;2022-08-06T10:35:05;101296.72;;;28.76
19568;BMP280;9930;49.240;8.548;2022-08-06T10:37:39;101283.44;;;28.82
19568;BMP280;9930;49.240;8.548;2022-08-06T10:40:11;101288.56;;;28.88
19568;BMP280;9930;49.240;8.548;2022-08-06T10:42:38;101278.88;;;28.90
19568;BMP280;9930;49.240;8.548;2022-08-06T10:45:08;101262.84;;;29.01
19568;BMP280;9930;49.240;8.548;2022-08-06T10:47:39;101274.94;;;29.08
19568;BMP280;9930;49.240;8.548;2022-08-06T10:50:08;101266.81;;;29.17
19568;BMP280;9930;49.240;8.548;2022-08-06T10:52:35;101272.03;;;29.19
19568;BMP280;9930;49.240;8.548;2022-08-06T10:55:05;101278.97;;;29.21
19568;BMP280;9930;49.240;8.548;2022-08-06T10:57:31;101277.09;;;29.26
19568;BMP280;9930;49.240;8.548;2022-08-06T11:00:00;101265.69;;;29.27
19568;BMP280;9930;49.240;8.548;2022-08-06T11:05:17;101275.09;;;29.36
19568;BMP280;9930;49.240;8.548;2022-08-06T11:14:25;101274.88;;;29.45
19568;BMP280;9930;49.240;8.548;2022-08-06T11:16:24;101279.06;;;29.52
19568;BMP280;9930;49.240;8.548;2022-08-06T11:19:17;101251.13;;;29.48
19568;BMP280;9930;49.240;8.548;2022-08-06T11:21:46;101265.78;;;29.57
19568;BMP280;9930;49.240;8.548;2022-08-06T11:24:17;101258.78;;;29.57
19568;BMP280;9930;49.240;8.548;2022-08-06T11:26:47;101255.38;;;29.54
19568;BMP280;9930;49.240;8.548;2022-08-06T11:29:16;101257.00;;;29.58
19568;BMP280;9930;49.240;8.548;2022-08-06T11:31:52;101245.66;;;29.56
19568;BMP280;9930;49.240;8.548;2022-08-06T11:34:20;101243.91;;;29.56
19568;BMP280;9930;49.240;8.548;2022-08-06T11:36:55;101246.41;;;29.61
19568;BMP280;9930;49.240;8.548;2022-08-06T11:39:24;101245.31;;;29.68
19568;BMP280;9930;49.240;8.548;2022-08-06T11:41:58;101238.97;;;29.75
19568;BMP280;9930;49.240;8.548;2022-08-06T11:44:27;101230.13;;;29.78
19568;BMP280;9930;49.240;8.548;2022-08-06T11:47:22;101236.16;;;29.81
19568;BMP280;9930;49.240;8.548;2022-08-06T11:49:49;101207.38;;;29.77
19568;BMP280;9930;49.240;8.548;2022-08-06T11:52:39;101203.56;;;29.87
19568;BMP280;9930;49.240;8.548;2022-08-06T11:55:18;101227.91;;;29.93
19568;BMP280;9930;49.240;8.548;2022-08-06T11:57:44;101233.22;;;29.92
19568;BMP280;9930;49.240;8.548;2022-08-06T12:00:13;101225.44;;;29.89
19568;BMP280;9930;49.240;8.548;2022-08-06T12:05:31;101217.50;;;29.90
19568;BMP280;9930;49.240;8.548;2022-08-06T12:08:20;101206.09;;;29.90
19568;BMP280;9930;49.240;8.548;2022-08-06T12:11:26;101205.97;;;29.94
19568;BMP280;9930;49.240;8.548;2022-08-06T12:13:56;101195.50;;;29.93
19568;BMP280;9930;49.240;8.548;2022-08-06T12:16:40;101207.44;;;30.05
19568;BMP280;9930;49.240;8.548;2022-08-06T12:19:12;101204.78;;;30.06
19568;BMP280;9930;49.240;8.548;2022-08-06T12:21:42;101192.53;;;30.05
19568;BMP280;9930;49.240;8.548;2022-08-06T12:24:09;101186.50;;;30.02
19568;BMP280;9930;49.240;8.548;2022-08-06T12:26:35;101183.72;;;30.06
19568;BMP280;9930;49.240;8.548;2022-08-06T12:29:06;101187.88;;;30.13
19568;BMP280;9930;49.240;8.548;2022-08-06T12:31:36;101184.28;;;30.16
19568;BMP280;9930;49.240;8.548;2022-08-06T12:34:03;101179.22;;;30.10
19568;BMP280;9930;49.240;8.548;2022-08-06T12:36:31;101176.63;;;30.08
19568;BMP280;9930;49.240;8.548;2022-08-06T12:38:59;101175.81;;;30.06
19568;BMP280;9930;49.240;8.548;2022-08-06T12:41:34;101189.69;;;30.11
19568;BMP280;9930;49.240;8.548;2022-08-06T12:44:01;101175.78;;;30.08
19568;BMP280;9930;49.240;8.548;2022-08-06T12:46:27;101176.72;;;30.05
19568;BMP280;9930;49.240;8.548;2022-08-06T12:48:52;101171.22;;;30.13
19568;BMP280;9930;49.240;8.548;2022-08-06T12:51:18;101171.19;;;30.14
19568;BMP280;9930;49.240;8.548;2022-08-06T12:53:54;101168.31;;;30.22
19568;BMP280;9930;49.240;8.548;2022-08-06T12:56:23;101170.91;;;30.23
19568;BMP280;9930;49.240;8.548;2022-08-06T12:58:51;101166.25;;;30.32
19568;BMP280;9930;49.240;8.548;2022-08-06T13:01:23;101150.25;;;30.38
19568;BMP280;9930;49.240;8.548;2022-08-06T13:03:53;101168.38;;;30.47
19568;BMP280;9930;49.240;8.548;2022-08-06T13:06:23;101165.59;;;30.51
19568;BMP280;9930;49.240;8.548;2022-08-06T13:08:51;101163.66;;;30.56
19568;BMP280;9930;49.240;8.548;2022-08-06T13:11:18;101156.56;;;30.60
19568;BMP280;9930;49.240;8.548;2022-08-06T13:13:51;101159.75;;;30.70
19568;BMP280;9930;49.240;8.548;2022-08-06T13:16:21;101154.38;;;30.73
19568;BMP280;9930;49.240;8.548;2022-08-06T13:19:12;101146.56;;;30.70
19568;BMP280;9930;49.240;8.548;2022-08-06T13:21:40;101162.16;;;30.76
19568;BMP280;9930;49.240;8.548;2022-08-06T13:24:08;101158.81;;;30.71
19568;BMP280;9930;49.240;8.548;2022-08-06T13:26:51;101157.00;;;30.73
19568;BMP280;9930;49.240;8.548;2022-08-06T13:29:26;101153.50;;;30.72
19568;BMP280;9930;49.240;8.548;2022-08-06T13:32:04;101148.25;;;30.72
19568;BMP280;9930;49.240;8.548;2022-08-06T13:34:50;101143.13;;;30.68
19568;BMP280;9930;49.240;8.548;2022-08-06T13:40:12;101143.03;;;30.71
19568;BMP280;9930;49.240;8.548;2022-08-06T13:42:57;101129.97;;;30.68
19568;BMP280;9930;49.240;8.548;2022-08-06T13:45:28;101130.19;;;30.62
19568;BMP280;9930;49.240;8.548;2022-08-06T13:48:10;101138.81;;;30.65
19568;BMP280;9930;49.240;8.548;2022-08-06T13:50:42;101121.38;;;30.63
19568;BMP280;9930;49.240;8.548;2022-08-06T13:53:11;101113.31;;;30.67
19568;BMP280;9930;49.240;8.548;2022-08-06T13:55:47;101113.19;;;30.70
19568;BMP280;9930;49.240;8.548;2022-08-06T13:58:14;101119.38;;;30.69
19568;BMP280;9930;49.240;8.548;2022-08-06T14:00:40;101102.00;;;30.64
19568;BMP280;9930;49.240;8.548;2022-08-06T14:03:07;101106.47;;;30.62
19568;BMP280;9930;49.240;8.548;2022-08-06T14:05:33;101130.19;;;30.62
19568;BMP280;9930;49.240;8.548;2022-08-06T14:08:04;101121.38;;;30.63
19568;BMP280;9930;49.240;8.548;2022-08-06T14:10:29;101109.34;;;30.54
19568;BMP280;9930;49.240;8.548;2022-08-06T14:12:55;101113.69;;;30.55
19568;BMP280;9930;49.240;8.548;2022-08-06T14:15:47;101113.47;;;30.63
19568;BMP280;9930;49.240;8.548;2022-08-06T14:18:19;101105.72;;;30.58
19568;BMP280;9930;49.240;8.548;2022-08-06T14:20:45;101099.22;;;30.68
19568;BMP280;9930;49.240;8.548;2022-08-06T14:23:15;101102.59;;;30.72
19568;BMP280;9930;49.240;8.548;2022-08-06T14:25:41;101106.97;;;30.73
19568;BMP280;9930;49.240;8.548;2022-08-06T14:28:08;101112.06;;;30.77
19568;BMP280;9930;49.240;8.548;2022-08-06T14:30:33;101092.03;;;30.73
19568;BMP280;9930;49.240;8.548;2022-08-06T14:33:01;101104.91;;;30.81
19568;BMP280;9930;49.240;8.548;2022-08-06T14:35:34;101102.22;;;30.82
19568;BMP280;9930;49.240;8.548;2022-08-06T14:38:02;101106.69;;;30.80
19568;BMP280;9930;49.240;8.548;2022-08-06T14:40:28;101112.94;;;30.78
19568;BMP280;9930;49.240;8.548;2022-08-06T14:43:16;101104.28;;;30.74
19568;BMP280;9930;49.240;8.548;2022-08-06T14:46:02;101087.88;;;30.66
19568;BMP280;9930;49.240;8.548;2022-08-06T14:48:27;101096.75;;;30.64
19568;BMP280;9930;49.240;8.548;2022-08-06T14:50:53;101089.69;;;30.64
19568;BMP280;9930;49.240;8.548;2022-08-06T14:53:19;101077.41;;;30.65
19568;BMP280;9930;49.240;8.548;2022-08-06T14:55:46;101080.84;;;30.67
19568;BMP280;9930;49.240;8.548;2022-08-06T14:58:12;101076.47;;;30.66
19568;BMP280;9930;49.240;8.548;2022-08-06T15:00:40;101079.97;;;30.66
19568;BMP280;9930;49.240;8.548;2022-08-06T15:03:08;101075.69;;;30.64
19568;BMP280;9930;49.240;8.548;2022-08-06T15:05:34;101069.50;;;30.65
19568;BMP280;9930;49.240;8.548;2022-08-06T15:08:01;101059.97;;;30.60
19568;BMP280;9930;49.240;8.548;2022-08-06T15:10:29;101071.97;;;30.69
19568;BMP280;9930;49.240;8.548;2022-08-06T15:12:55;101064.06;;;30.69
19568;BMP280;9930;49.240;8.548;2022-08-06T15:15:21;101065.72;;;30.72
19568;BMP280;9930;49.240;8.548;2022-08-06T15:17:49;101056.06;;;30.72